Time;durP1;ratioP1;P1;durP2;ratioP2;P2;SDS_P1;SDS_P2;PMS_P1;PMS_P2;Temp;Humidity;BMP_temperature;BMP_pressure;BME280_temperature;BME280_humidity;BME280_pressure;Samples;Min_cycle;Max_cycle;Signal;HPM_P1;HPM_P2
2023/03/07 00:00:01;;;;;;;11.23;5.13;;;;;;;;;;5000308;28;20030;-46
2023/03/07 00:02:26;;;;;;;11.80;5.55;;;;;;;;;;5000850;28;20014;-46
2023/03/07 00:04:51;;;;;;;14.93;5.13;;;;;;;;;;5007865;28;20180;-47
2023/03/07 00:07:17;;;;;;;11.77;5.68;;;;;;;;;;5003354;28;20475;-46
2023/03/07 00:09:42;;;;;;;10.80;4.40;;;;;;;;;;5004531;28;20180;-48
2023/03/07 00:12:08;;;;;;;18.05;5.20;;;;;;;;;;5001981;28;20029;-49
2023/03/07 00:14:34;;;;;;;12.77;5.72;;;;;;;;;;5003676;28;20021;-45
2023/03/07 00:16:59;;;;;;;10.57;4.72;;;;;;;;;;4998427;28;20061;-47
2023/03/07 00:19:24;;;;;;;13.23;5.88;;;;;;;;;;5001878;28;20049;-45
2023/03/07 00:21:50;;;;;;;13.30;5.60;;;;;;;;;;5000171;28;20042;-47
2023/03/07 00:24:15;;;;;;;14.45;5.22;;;;;;;;;;5002440;28;20038;-46
2023/03/07 00:26:40;;;;;;;14.15;6.20;;;;;;;;;;5004105;28;20026;-50
2023/03/07 00:29:08;;;;;;;12.35;5.95;;;;;;;;;;4997253;28;20055;-47
2023/03/07 00:31:33;;;;;;;13.73;5.95;;;;;;;;;;5000155;28;20080;-46
2023/03/07 00:33:59;;;;;;;13.15;6.45;;;;;;;;;;4999386;28;20033;-46
2023/03/07 00:36:25;;;;;;;15.27;6.50;;;;;;;;;;4995266;28;20041;-47
2023/03/07 00:38:51;;;;;;;15.80;6.22;;;;;;;;;;4998923;28;20053;-46
2023/03/07 00:41:22;;;;;;;11.93;4.93;;;;;;;;;;4995107;28;20172;-46
2023/03/07 00:43:48;;;;;;;13.38;5.63;;;;;;;;;;4999106;28;20064;-47
2023/03/07 00:46:16;;;;;;;10.40;5.75;;;;;;;;;;5003502;28;20507;-46
2023/03/07 00:48:41;;;;;;;9.70;4.72;;;;;;;;;;5005748;28;20419;-48
2023/03/07 00:51:09;;;;;;;14.05;4.93;;;;;;;;;;4993563;28;20500;-46
2023/03/07 00:53:35;;;;;;;13.63;5.32;;;;;;;;;;4995575;28;20061;-46
2023/03/07 00:56:04;;;;;;;13.57;5.65;;;;;;;;;;5004443;28;20478;-45
2023/03/07 00:58:33;;;;;;;15.50;5.90;;;;;;;;;;5001917;28;20044;-44
2023/03/07 01:00:58;;;;;;;13.95;5.40;;;;;;;;;;4999351;28;20041;-47
2023/03/07 01:03:24;;;;;;;10.95;5.05;;;;;;;;;;4999918;28;20380;-47
2023/03/07 01:05:50;;;;;;;16.25;6.25;;;;;;;;;;4997877;28;20030;-47
2023/03/07 01:08:17;;;;;;;16.30;5.57;;;;;;;;;;5002534;28;20579;-48
2023/03/07 01:10:43;;;;;;;14.05;5.93;;;;;;;;;;4999700;28;20042;-45
2023/03/07 01:13:10;;;;;;;10.45;5.20;;;;;;;;;;5002608;28;20037;-46
2023/03/07 01:15:36;;;;;;;14.77;5.80;;;;;;;;;;5005202;28;20033;-48
2023/03/07 01:18:02;;;;;;;14.20;6.05;;;;;;;;;;5005547;28;20048;-49
2023/03/07 01:20:33;;;;;;;12.05;4.57;;;;;;;;;;5001881;28;20492;-46
2023/03/07 01:22:58;;;;;;;15.07;6.00;;;;;;;;;;5000960;28;20030;-46
2023/03/07 01:25:24;;;;;;;15.27;5.43;;;;;;;;;;5003099;28;20057;-45
2023/03/07 01:27:54;;;;;;;14.35;6.03;;;;;;;;;;4999898;28;20036;-44
2023/03/07 01:30:20;;;;;;;12.35;5.85;;;;;;;;;;4995063;28;20064;-45
2023/03/07 01:32:47;;;;;;;13.35;5.78;;;;;;;;;;4991559;28;20632;-47
2023/03/07 01:35:13;;;;;;;12.95;5.63;;;;;;;;;;5003472;28;20046;-47
2023/03/07 01:37:38;;;;;;;15.10;7.22;;;;;;;;;;5002013;28;20074;-46
2023/03/07 01:40:04;;;;;;;14.50;6.00;;;;;;;;;;4997084;28;20987;-50
2023/03/07 01:42:30;;;;;;;10.30;5.45;;;;;;;;;;4999125;28;20117;-47
2023/03/07 01:45:12;;;;;;;19.42;6.95;;;;;;;;;;4996320;28;20100;-45
2023/03/07 01:47:39;;;;;;;15.43;6.05;;;;;;;;;;5004646;28;20048;-46
2023/03/07 01:50:11;;;;;;;13.95;6.55;;;;;;;;;;5002979;28;20030;-46
2023/03/07 01:52:44;;;;;;;12.43;5.38;;;;;;;;;;4986478;28;20045;-46
2023/03/07 01:55:36;;;;;;;14.43;4.78;;;;;;;;;;5005451;28;20034;-45
2023/03/07 01:58:13;;;;;;;13.15;5.68;;;;;;;;;;4999742;28;20088;-46
2023/03/07 02:00:40;;;;;;;12.93;5.55;;;;;;;;;;4999856;28;20108;-45
2023/03/07 02:03:09;;;;;;;12.63;5.85;;;;;;;;;;5004213;28;20050;-47
2023/03/07 02:05:47;;;;;;;10.60;5.30;;;;;;;;;;5005103;28;20053;-46
2023/03/07 02:08:15;;;;;;;14.00;6.05;;;;;;;;;;5004786;28;20061;-46
2023/03/07 02:10:41;;;;;;;16.10;6.95;;;;;;;;;;5004353;28;20121;-45
2023/03/07 02:13:06;;;;;;;17.60;6.32;;;;;;;;;;5000822;28;20042;-47
2023/03/07 02:15:34;;;;;;;17.13;6.55;;;;;;;;;;5006951;28;20396;-45
2023/03/07 02:17:59;;;;;;;13.75;5.80;;;;;;;;;;5007347;28;20120;-46
2023/03/07 02:20:52;;;;;;;20.65;6.43;;;;;;;;;;5005688;28;20121;-47
2023/03/07 02:23:43;;;;;;;13.60;6.30;;;;;;;;;;5008460;28;20045;-45
2023/03/07 02:26:27;;;;;;;21.77;6.28;;;;;;;;;;5001925;28;20103;-45
2023/03/07 02:28:53;;;;;;;16.73;5.85;;;;;;;;;;5001862;28;20303;-46
2023/03/07 02:31:19;;;;;;;13.90;6.00;;;;;;;;;;5005880;28;20030;-46
2023/03/07 02:33:44;;;;;;;15.48;6.53;;;;;;;;;;5001275;28;20073;-48
2023/03/07 02:36:36;;;;;;;13.45;6.35;;;;;;;;;;5006900;28;20032;-46
2023/03/07 02:39:05;;;;;;;13.52;6.20;;;;;;;;;;5005493;28;20040;-50
2023/03/07 02:41:32;;;;;;;16.00;5.75;;;;;;;;;;5005672;28;20033;-47
2023/03/07 02:43:59;;;;;;;9.85;5.38;;;;;;;;;;5004307;28;20038;-47
2023/03/07 02:46:24;;;;;;;14.40;6.03;;;;;;;;;;5005746;28;20056;-46
2023/03/07 02:48:49;;;;;;;11.43;5.47;;;;;;;;;;5005047;28;20764;-45
2023/03/07 02:51:14;;;;;;;12.57;5.15;;;;;;;;;;5007599;28;20057;-46
2023/03/07 02:53:40;;;;;;;14.10;5.68;;;;;;;;;;5007504;28;20029;-47
2023/03/07 02:56:06;;;;;;;12.48;5.65;;;;;;;;;;5003223;28;20092;-47
2023/03/07 02:58:32;;;;;;;13.73;6.28;;;;;;;;;;5005583;28;20053;-47
2023/03/07 03:00:57;;;;;;;15.60;6.50;;;;;;;;;;5006633;28;20117;-46
2023/03/07 03:03:23;;;;;;;15.35;6.07;;;;;;;;;;4997913;28;20393;-48
2023/03/07 03:05:48;;;;;;;12.63;5.70;;;;;;;;;;4997427;28;20620;-46
2023/03/07 03:08:13;;;;;;;11.77;5.43;;;;;;;;;;5002483;28;20038;-46
2023/03/07 03:10:39;;;;;;;12.55;4.75;;;;;;;;;;5006392;28;20116;-48
2023/03/07 03:13:04;;;;;;;12.88;5.28;;;;;;;;;;5005140;28;20048;-45
2023/03/07 03:15:29;;;;;;;13.13;5.55;;;;;;;;;;5006070;28;20109;-47
2023/03/07 03:17:55;;;;;;;20.00;5.88;;;;;;;;;;5007160;28;20133;-46
2023/03/07 03:20:21;;;;;;;15.20;6.30;;;;;;;;;;5007231;28;20052;-46
2023/03/07 03:22:46;;;;;;;21.40;6.70;;;;;;;;;;5005172;28;20034;-46
2023/03/07 03:25:13;;;;;;;14.68;5.55;;;;;;;;;;5004732;28;20887;-47
2023/03/07 03:27:39;;;;;;;15.73;6.40;;;;;;;;;;5007233;28;20038;-46
2023/03/07 03:30:06;;;;;;;10.60;4.10;;;;;;;;;;5006077;28;20058;-46
2023/03/07 03:32:32;;;;;;;12.23;5.50;;;;;;;;;;5006630;28;20022;-47
2023/03/07 03:34:58;;;;;;;15.27;5.03;;;;;;;;;;5007235;28;20045;-47
2023/03/07 03:37:23;;;;;;;10.35;4.85;;;;;;;;;;5005505;28;20045;-46
2023/03/07 03:39:48;;;;;;;14.98;6.10;;;;;;;;;;5004267;28;20034;-49
2023/03/07 03:42:14;;;;;;;13.95;5.72;;;;;;;;;;5003764;28;20119;-46
2023/03/07 03:44:39;;;;;;;14.95;6.35;;;;;;;;;;5000974;28;20029;-46
2023/03/07 03:47:04;;;;;;;10.93;4.43;;;;;;;;;;5007563;28;20121;-47
2023/03/07 03:49:30;;;;;;;15.10;6.40;;;;;;;;;;5006215;28;20127;-47
2023/03/07 03:51:55;;;;;;;12.23;5.68;;;;;;;;;;5005788;28;20125;-46
2023/03/07 03:54:21;;;;;;;11.07;5.63;;;;;;;;;;5004674;28;20111;-46
2023/03/07 03:56:46;;;;;;;14.40;6.28;;;;;;;;;;5006436;28;20112;-45
2023/03/07 03:59:11;;;;;;;15.63;6.18;;;;;;;;;;5006611;28;20515;-47
2023/03/07 04:01:36;;;;;;;17.33;6.35;;;;;;;;;;5006682;28;20237;-49
2023/03/07 04:04:03;;;;;;;12.70;6.30;;;;;;;;;;5006827;28;20046;-48
2023/03/07 04:06:32;;;;;;;11.35;5.72;;;;;;;;;;5003694;28;20438;-47
2023/03/07 04:08:58;;;;;;;14.60;6.88;;;;;;;;;;5006956;28;20030;-48
2023/03/07 04:11:24;;;;;;;10.38;5.70;;;;;;;;;;5006090;28;20107;-49
2023/03/07 04:13:49;;;;;;;16.85;6.43;;;;;;;;;;5005785;28;20042;-45
2023/03/07 04:16:16;;;;;;;16.42;6.20;;;;;;;;;;5005079;28;20103;-44
2023/03/07 04:18:41;;;;;;;17.48;7.32;;;;;;;;;;5006215;28;20053;-47
2023/03/07 04:21:08;;;;;;;18.48;7.10;;;;;;;;;;5003561;28;20037;-45
2023/03/07 04:23:34;;;;;;;13.35;6.10;;;;;;;;;;5005459;28;20022;-46
2023/03/07 04:26:01;;;;;;;15.35;6.20;;;;;;;;;;5001982;28;20060;-47
2023/03/07 04:28:44;;;;;;;13.40;5.20;;;;;;;;;;5005734;28;20099;-46
2023/03/07 04:31:22;;;;;;;19.75;7.88;;;;;;;;;;5000405;28;20038;-44
2023/03/07 04:33:47;;;;;;;13.60;5.35;;;;;;;;;;4992493;28;20079;-47
2023/03/07 04:36:16;;;;;;;17.25;5.78;;;;;;;;;;5004681;28;20072;-45
2023/03/07 04:38:43;;;;;;;13.80;5.65;;;;;;;;;;5006675;28;20053;-49
2023/03/07 04:41:13;;;;;;;12.88;5.63;;;;;;;;;;5005542;28;20030;-45
2023/03/07 04:43:38;;;;;;;12.63;5.95;;;;;;;;;;5005878;28;20041;-45
2023/03/07 04:46:04;;;;;;;14.32;5.68;;;;;;;;;;5002933;28;20038;-45
2023/03/07 04:48:29;;;;;;;11.90;5.93;;;;;;;;;;4999817;28;20042;-45
2023/03/07 04:50:54;;;;;;;18.73;7.70;;;;;;;;;;4999103;28;20080;-47
2023/03/07 04:53:21;;;;;;;15.05;5.57;;;;;;;;;;5004398;28;20576;-45
2023/03/07 04:55:46;;;;;;;14.48;6.13;;;;;;;;;;5006066;28;20038;-48
2023/03/07 04:58:12;;;;;;;15.10;6.10;;;;;;;;;;4999316;28;20042;-45
2023/03/07 05:00:42;;;;;;;13.07;5.93;;;;;;;;;;4995674;28;20048;-46
2023/03/07 05:03:09;;;;;;;17.90;6.28;;;;;;;;;;5003439;28;20498;-48
2023/03/07 05:05:35;;;;;;;16.58;6.50;;;;;;;;;;5005952;28;20033;-47
2023/03/07 05:08:01;;;;;;;10.02;4.70;;;;;;;;;;5005382;28;20078;-47
2023/03/07 05:10:26;;;;;;;16.58;6.10;;;;;;;;;;5006439;28;20040;-47
2023/03/07 05:12:52;;;;;;;15.00;6.20;;;;;;;;;;5004975;28;20049;-46
2023/03/07 05:15:17;;;;;;;15.27;6.70;;;;;;;;;;5004224;28;20036;-47
2023/03/07 05:17:42;;;;;;;20.50;6.95;;;;;;;;;;5005739;28;20049;-49
2023/03/07 05:20:12;;;;;;;13.38;5.97;;;;;;;;;;5005144;28;20533;-48
2023/03/07 05:22:37;;;;;;;19.70;6.72;;;;;;;;;;5005472;28;20066;-46
2023/03/07 05:25:03;;;;;;;21.55;6.75;;;;;;;;;;5005211;28;20061;-47
2023/03/07 05:27:29;;;;;;;15.52;6.95;;;;;;;;;;5004790;28;20029;-47
2023/03/07 05:29:54;;;;;;;12.55;6.45;;;;;;;;;;5000709;28;20120;-46
2023/03/07 05:32:19;;;;;;;18.70;7.30;;;;;;;;;;5003536;28;20042;-48
2023/03/07 05:34:45;;;;;;;19.13;8.30;;;;;;;;;;5004411;28;20045;-47
2023/03/07 05:37:11;;;;;;;14.63;6.40;;;;;;;;;;5004857;28;20044;-45
2023/03/07 05:39:37;;;;;;;26.27;7.43;;;;;;;;;;5005624;28;20037;-46
2023/03/07 05:42:03;;;;;;;17.63;7.20;;;;;;;;;;5005356;28;20155;-45
2023/03/07 05:44:28;;;;;;;19.13;6.85;;;;;;;;;;5001234;28;20030;-47
2023/03/07 05:46:54;;;;;;;15.75;7.28;;;;;;;;;;5001792;28;20124;-46
2023/03/07 05:49:19;;;;;;;11.23;5.55;;;;;;;;;;5001022;28;20037;-46
2023/03/07 05:51:44;;;;;;;16.73;7.45;;;;;;;;;;5005112;28;20053;-47
2023/03/07 05:54:10;;;;;;;20.30;7.70;;;;;;;;;;5008344;28;20040;-46
2023/03/07 05:56:36;;;;;;;13.45;5.95;;;;;;;;;;5006926;28;20026;-47
2023/03/07 05:59:02;;;;;;;15.20;6.00;;;;;;;;;;5001882;28;20030;-46
2023/03/07 06:01:27;;;;;;;16.02;6.53;;;;;;;;;;5002882;28;20034;-47
2023/03/07 06:03:53;;;;;;;14.23;5.72;;;;;;;;;;5008414;28;20803;-45
2023/03/07 06:06:18;;;;;;;11.85;5.55;;;;;;;;;;5008948;28;20399;-47
2023/03/07 06:08:43;;;;;;;19.05;6.05;;;;;;;;;;5008443;28;20037;-46
2023/03/07 06:11:10;;;;;;;15.65;7.57;;;;;;;;;;5008114;28;20105;-46
2023/03/07 06:13:35;;;;;;;13.73;5.15;;;;;;;;;;5003635;28;20034;-48
2023/03/07 06:16:00;;;;;;;18.55;6.50;;;;;;;;;;4991407;28;20048;-46
2023/03/07 06:18:26;;;;;;;15.40;6.43;;;;;;;;;;4997434;28;20529;-44
2023/03/07 06:21:00;;;;;;;14.75;7.35;;;;;;;;;;4992940;28;20025;-46
2023/03/07 06:23:27;;;;;;;17.67;6.20;;;;;;;;;;4998116;28;20049;-45
2023/03/07 06:25:53;;;;;;;14.65;6.30;;;;;;;;;;5003285;28;20422;-46
2023/03/07 06:28:18;;;;;;;15.50;7.03;;;;;;;;;;5008384;28;20504;-47
2023/03/07 06:30:43;;;;;;;14.18;5.25;;;;;;;;;;5007997;28;20033;-48
2023/03/07 06:33:09;;;;;;;14.95;6.25;;;;;;;;;;5006527;28;20029;-46
2023/03/07 06:35:39;;;;;;;14.23;6.13;;;;;;;;;;5008337;28;20188;-46
2023/03/07 06:38:04;;;;;;;14.32;5.50;;;;;;;;;;5004892;28;20038;-49
2023/03/07 06:40:29;;;;;;;12.70;5.18;;;;;;;;;;5005476;28;20115;-46
2023/03/07 06:42:55;;;;;;;14.85;6.15;;;;;;;;;;5015398;28;20136;-48
2023/03/07 06:45:20;;;;;;;12.18;6.63;;;;;;;;;;5026985;28;20550;-48
2023/03/07 06:47:45;;;;;;;14.90;6.45;;;;;;;;;;5027973;28;20028;-49
2023/03/07 06:50:10;;;;;;;13.40;6.22;;;;;;;;;;5027081;28;20474;-47
2023/03/07 06:52:36;;;;;;;15.52;5.55;;;;;;;;;;5025126;28;20132;-48
2023/03/07 06:55:02;;;;;;;15.73;6.47;;;;;;;;;;5009423;28;20036;-45
2023/03/07 06:57:28;;;;;;;14.35;5.20;;;;;;;;;;5024096;28;20057;-48
2023/03/07 06:59:53;;;;;;;13.93;6.72;;;;;;;;;;5024884;28;20071;-49
2023/03/07 07:02:18;;;;;;;10.63;5.03;;;;;;;;;;5024376;28;20034;-51
2023/03/07 07:04:44;;;;;;;14.00;6.18;;;;;;;;;;5026337;28;20045;-50
2023/03/07 07:07:09;;;;;;;18.00;8.35;;;;;;;;;;5025332;28;20499;-47
2023/03/07 07:09:35;;;;;;;14.45;6.07;;;;;;;;;;5026953;28;20037;-47
2023/03/07 07:12:00;;;;;;;15.85;6.05;;;;;;;;;;5026836;28;20022;-45
2023/03/07 07:14:25;;;;;;;14.02;6.15;;;;;;;;;;5027012;28;20057;-47
2023/03/07 07:16:51;;;;;;;17.92;7.53;;;;;;;;;;5022639;28;20465;-49
2023/03/07 07:19:16;;;;;;;16.45;6.22;;;;;;;;;;5021627;28;20715;-46
2023/03/07 07:21:42;;;;;;;15.43;7.15;;;;;;;;;;5024201;28;20038;-49
2023/03/07 07:24:10;;;;;;;18.15;6.57;;;;;;;;;;5025829;28;20021;-47
2023/03/07 07:26:36;;;;;;;12.32;5.85;;;;;;;;;;5025485;28;20025;-46
2023/03/07 07:29:01;;;;;;;19.88;7.75;;;;;;;;;;4995324;28;20523;-49
2023/03/07 07:31:26;;;;;;;15.35;6.55;;;;;;;;;;5002219;28;20427;-48
2023/03/07 07:33:52;;;;;;;14.80;6.82;;;;;;;;;;5000575;28;20125;-50
2023/03/07 07:36:17;;;;;;;16.27;6.63;;;;;;;;;;5004891;28;20025;-50
2023/03/07 07:38:42;;;;;;;16.52;7.65;;;;;;;;;;5006210;28;20030;-47
2023/03/07 07:41:08;;;;;;;17.45;7.28;;;;;;;;;;5004603;28;20084;-47
2023/03/07 07:43:33;;;;;;;20.23;7.90;;;;;;;;;;5004759;28;20096;-49
2023/03/07 07:45:58;;;;;;;15.90;6.95;;;;;;;;;;4998193;28;20044;-46
2023/03/07 07:48:24;;;;;;;18.90;7.30;;;;;;;;;;4994812;28;20057;-51
2023/03/07 07:50:49;;;;;;;18.20;6.50;;;;;;;;;;5006280;28;20052;-46
2023/03/07 07:53:17;;;;;;;17.38;8.07;;;;;;;;;;5002816;28;20534;-48
2023/03/07 07:55:43;;;;;;;14.85;6.45;;;;;;;;;;5002807;28;20499;-51
2023/03/07 07:58:08;;;;;;;17.48;7.07;;;;;;;;;;4999686;28;20580;-51
2023/03/07 08:00:34;;;;;;;16.50;7.55;;;;;;;;;;5005165;28;20034;-50
2023/03/07 08:02:59;;;;;;;19.52;8.77;;;;;;;;;;4999252;28;20060;-48
2023/03/07 08:05:25;;;;;;;23.27;9.23;;;;;;;;;;5024477;28;20092;-50
2023/03/07 08:07:50;;;;;;;24.10;7.47;;;;;;;;;;5024375;28;20029;-50
2023/03/07 08:10:16;;;;;;;16.90;7.55;;;;;;;;;;5004665;28;20033;-47
2023/03/07 08:12:43;;;;;;;17.40;7.60;;;;;;;;;;5005752;28;20115;-49
2023/03/07 08:15:09;;;;;;;17.38;6.20;;;;;;;;;;5003076;28;20034;-50
2023/03/07 08:17:34;;;;;;;18.92;7.57;;;;;;;;;;4998478;28;20613;-49
2023/03/07 08:20:03;;;;;;;19.20;8.23;;;;;;;;;;4997705;28;20053;-49
2023/03/07 08:22:28;;;;;;;16.45;7.40;;;;;;;;;;5002326;28;20038;-47
2023/03/07 08:24:54;;;;;;;20.45;8.18;;;;;;;;;;4999119;28;20064;-47
2023/03/07 08:27:19;;;;;;;19.77;8.07;;;;;;;;;;4998059;28;20045;-46
2023/03/07 08:29:48;;;;;;;18.15;6.70;;;;;;;;;;4999523;28;20033;-50
2023/03/07 08:32:14;;;;;;;19.42;7.97;;;;;;;;;;4997290;28;20188;-50
2023/03/07 08:34:39;;;;;;;19.85;8.02;;;;;;;;;;4998196;28;20048;-48
2023/03/07 08:37:04;;;;;;;19.30;8.57;;;;;;;;;;4997740;28;20042;-48
2023/03/07 08:39:30;;;;;;;16.70;6.88;;;;;;;;;;5001106;28;20069;-47
2023/03/07 08:41:55;;;;;;;20.13;6.90;;;;;;;;;;5002075;28;20033;-49
2023/03/07 08:44:21;;;;;;;16.77;7.38;;;;;;;;;;4999123;28;20033;-48
2023/03/07 08:46:46;;;;;;;18.80;8.07;;;;;;;;;;4995671;28;20137;-46
2023/03/07 08:49:11;;;;;;;20.63;7.40;;;;;;;;;;4995517;28;20037;-48
2023/03/07 08:51:37;;;;;;;18.40;7.53;;;;;;;;;;5021035;28;20446;-45
2023/03/07 08:54:02;;;;;;;21.95;8.25;;;;;;;;;;4995229;28;20026;-50
2023/03/07 08:56:27;;;;;;;17.13;7.68;;;;;;;;;;5005949;28;20376;-48
2023/03/07 08:58:53;;;;;;;17.35;7.88;;;;;;;;;;5001672;28;20519;-48
2023/03/07 09:01:18;;;;;;;17.60;7.75;;;;;;;;;;5000521;28;20038;-47
2023/03/07 09:03:44;;;;;;;15.35;7.07;;;;;;;;;;4985576;28;20093;-47
2023/03/07 09:06:17;;;;;;;16.20;7.25;;;;;;;;;;4985264;28;20405;-46
2023/03/07 09:08:43;;;;;;;16.52;7.07;;;;;;;;;;4986910;28;20511;-50
2023/03/07 09:11:08;;;;;;;18.63;8.45;;;;;;;;;;4988054;28;20065;-50
2023/03/07 09:13:33;;;;;;;18.00;6.97;;;;;;;;;;5005619;28;20084;-49
2023/03/07 09:15:59;;;;;;;17.67;7.03;;;;;;;;;;5004803;28;20120;-48
2023/03/07 09:18:24;;;;;;;17.67;7.57;;;;;;;;;;5006185;28;20100;-47
2023/03/07 09:20:49;;;;;;;15.40;7.53;;;;;;;;;;5006126;28;20105;-50
2023/03/07 09:23:15;;;;;;;16.63;7.28;;;;;;;;;;5004738;28;20116;-48
2023/03/07 09:25:40;;;;;;;18.67;8.40;;;;;;;;;;5002663;28;20410;-49
2023/03/07 09:28:05;;;;;;;18.40;8.93;;;;;;;;;;5000203;28;20049;-47
2023/03/07 09:30:31;;;;;;;15.45;6.82;;;;;;;;;;5005438;28;20037;-47
2023/03/07 09:32:57;;;;;;;16.95;6.68;;;;;;;;;;5007092;28;20076;-51
2023/03/07 09:35:22;;;;;;;22.95;8.40;;;;;;;;;;5003425;28;20496;-48
2023/03/07 09:37:48;;;;;;;22.52;9.68;;;;;;;;;;5003344;28;20034;-50
2023/03/07 09:40:22;;;;;;;25.42;9.85;;;;;;;;;;5002354;28;20463;-47
2023/03/07 09:42:56;;;;;;;18.95;7.43;;;;;;;;;;4999405;28;20066;-48
2023/03/07 09:46:03;;;;;;;17.05;7.38;;;;;;;;;;4992186;28;20125;-48
2023/03/07 09:49:11;;;;;;;20.60;7.82;;;;;;;;;;4957115;28;20181;-49
2023/03/07 09:51:39;;;;;;;27.17;10.55;;;;;;;;;;4986061;28;20045;-50
2023/03/07 09:54:15;;;;;;;20.63;8.75;;;;;;;;;;4997432;28;20038;-46
2023/03/07 09:56:50;;;;;;;16.17;7.95;;;;;;;;;;5004772;28;20101;-49
2023/03/07 09:59:24;;;;;;;19.23;7.53;;;;;;;;;;5002806;28;20052;-51
2023/03/07 10:01:51;;;;;;;;;;;;;;;;;;5017634;28;20470;-47
2023/03/07 10:04:25;;;;;;;17.35;8.10;;;;;;;;;;5014998;28;19921;-45
2023/03/07 10:06:54;;;;;;;16.23;7.25;;;;;;;;;;5005938;28;20041;-48
2023/03/07 10:09:22;;;;;;;23.70;8.82;;;;;;;;;;4994633;28;20129;-46
2023/03/07 10:12:04;;;;;;;12.98;6.82;;;;;;;;;;5005209;28;20683;-47
2023/03/07 10:15:02;;;;;;;19.40;8.15;;;;;;;;;;5004739;28;20455;-50
2023/03/07 10:17:56;;;;;;;17.77;7.47;;;;;;;;;;4994355;28;20073;-47
2023/03/07 10:20:39;;;;;;;24.50;10.30;;;;;;;;;;5013356;28;20041;-48
2023/03/07 10:23:07;;;;;;;22.83;8.77;;;;;;;;;;5025598;28;20045;-46
2023/03/07 10:25:35;;;;;;;20.15;7.35;;;;;;;;;;5022978;28;20064;-49
2023/03/07 10:28:17;;;;;;;16.15;7.15;;;;;;;;;;4995861;28;20030;-48
2023/03/07 10:30:44;;;;;;;16.60;7.15;;;;;;;;;;4993343;28;20049;-50
2023/03/07 10:33:16;;;;;;;16.85;7.50;;;;;;;;;;5000337;28;20545;-49
2023/03/07 10:35:43;;;;;;;20.95;7.18;;;;;;;;;;5006727;28;20084;-50
2023/03/07 10:38:31;;;;;;;18.80;8.75;;;;;;;;;;5006150;28;20052;-50
2023/03/07 10:41:02;;;;;;;18.30;7.63;;;;;;;;;;5001808;28;20115;-50
2023/03/07 10:43:33;;;;;;;20.17;7.22;;;;;;;;;;5003456;28;20038;-48
2023/03/07 10:46:11;;;;;;;15.95;6.03;;;;;;;;;;5001882;28;20050;-49
2023/03/07 10:48:47;;;;;;;17.70;6.80;;;;;;;;;;5002234;28;20046;-46
2023/03/07 10:51:31;;;;;;;17.55;7.75;;;;;;;;;;5003105;28;20030;-48
2023/03/07 10:53:56;;;;;;;14.85;6.18;;;;;;;;;;5004260;28;20037;-48
2023/03/07 10:56:22;;;;;;;16.63;7.35;;;;;;;;;;4998449;28;20037;-46
2023/03/07 10:59:08;;;;;;;16.42;7.93;;;;;;;;;;5001370;28;20093;-47
2023/03/07 11:01:35;;;;;;;19.08;8.32;;;;;;;;;;5001165;28;20049;-49
2023/03/07 11:04:06;;;;;;;22.35;8.32;;;;;;;;;;4996345;28;20536;-47
2023/03/07 11:06:36;;;;;;;15.80;7.53;;;;;;;;;;5001875;28;20037;-48
2023/03/07 11:09:14;;;;;;;13.23;6.68;;;;;;;;;;5003742;28;20611;-45
2023/03/07 11:11:39;;;;;;;21.38;6.72;;;;;;;;;;5009044;28;20022;-49
2023/03/07 11:14:08;;;;;;;15.63;6.25;;;;;;;;;;5005447;28;20064;-49
2023/03/07 11:16:51;;;;;;;15.48;6.95;;;;;;;;;;5007902;28;20596;-50
2023/03/07 11:19:41;;;;;;;16.17;6.87;;;;;;;;;;5002396;28;20042;-46
2023/03/07 11:22:24;;;;;;;15.68;6.75;;;;;;;;;;4999182;28;20279;-51
2023/03/07 11:24:58;;;;;;;18.92;7.25;;;;;;;;;;5008369;28;20049;-50
2023/03/07 11:28:01;;;;;;;13.68;6.93;;;;;;;;;;4997777;28;20042;-47
2023/03/07 11:30:37;;;;;;;19.25;8.70;;;;;;;;;;4993181;28;20038;-50
2023/03/07 11:33:02;;;;;;;21.65;8.82;;;;;;;;;;4997601;28;20069;-47
2023/03/07 11:35:42;;;;;;;22.58;9.50;;;;;;;;;;4990808;28;20057;-47
2023/03/07 11:38:21;;;;;;;23.63;8.40;;;;;;;;;;4988765;28;20042;-50
2023/03/07 11:41:24;;;;;;;18.95;8.40;;;;;;;;;;4994779;28;20626;-46
2023/03/07 11:44:37;;;;;;;17.75;7.25;;;;;;;;;;4998303;28;20737;-47
2023/03/07 11:47:21;;;;;;;20.33;7.87;;;;;;;;;;4969164;28;20519;-50
2023/03/07 11:49:59;;;;;;;18.83;7.45;;;;;;;;;;5019920;28;20329;-47
2023/03/07 11:52:37;;;;;;;20.92;7.15;;;;;;;;;;5046137;28;20120;-50
2023/03/07 11:55:14;;;;;;;16.90;7.93;;;;;;;;;;5026965;28;20041;-46
2023/03/07 11:57:59;;;;;;;18.27;7.40;;;;;;;;;;5027497;28;20511;-49
2023/03/07 12:00:46;;;;;;;17.80;8.38;;;;;;;;;;5023136;28;20037;-51
2023/03/07 12:03:38;;;;;;;17.63;7.15;;;;;;;;;;5026542;28;20025;-50
2023/03/07 12:06:36;;;;;;;16.73;6.75;;;;;;;;;;5020217;28;20156;-49
2023/03/07 12:09:28;;;;;;;17.48;7.07;;;;;;;;;;5019767;28;20029;-48
2023/03/07 12:12:12;;;;;;;12.05;6.15;;;;;;;;;;5021888;28;20041;-47
2023/03/07 12:14:58;;;;;;;15.65;5.88;;;;;;;;;;5020866;28;20048;-49
2023/03/07 12:17:42;;;;;;;14.00;5.80;;;;;;;;;;5018133;28;20054;-49
2023/03/07 12:20:17;;;;;;;14.60;6.47;;;;;;;;;;5022072;28;20068;-49
2023/03/07 12:23:04;;;;;;;14.43;6.40;;;;;;;;;;5026589;28;20521;-46
2023/03/07 12:25:37;;;;;;;12.25;5.78;;;;;;;;;;5019976;28;20038;-46
2023/03/07 12:28:09;;;;;;;14.00;6.63;;;;;;;;;;5020886;28;20029;-51
2023/03/07 12:30:40;;;;;;;15.57;7.38;;;;;;;;;;5018582;28;20045;-47
2023/03/07 12:33:11;;;;;;;14.18;6.72;;;;;;;;;;5019933;28;20029;-46
2023/03/07 12:35:48;;;;;;;11.30;5.90;;;;;;;;;;5026100;28;20072;-51
2023/03/07 12:38:26;;;;;;;17.83;8.63;;;;;;;;;;5020437;28;20029;-50
2023/03/07 12:41:01;;;;;;;12.77;6.70;;;;;;;;;;5015689;28;20079;-46
2023/03/07 12:43:38;;;;;;;17.50;7.65;;;;;;;;;;5017526;28;20046;-49
2023/03/07 12:46:40;;;;;;;13.75;6.85;;;;;;;;;;5010373;28;20053;-49
2023/03/07 12:49:14;;;;;;;16.30;7.65;;;;;;;;;;5021469;28;20073;-47
2023/03/07 12:51:46;;;;;;;12.82;5.28;;;;;;;;;;5018495;28;20053;-46
2023/03/07 12:54:24;;;;;;;13.02;4.85;;;;;;;;;;5021017;28;20026;-49
2023/03/07 12:56:58;;;;;;;5.65;2.97;;;;;;;;;;5019942;28;20021;-47
2023/03/07 12:59:25;;;;;;;4.93;2.58;;;;;;;;;;5021342;28;20033;-50
2023/03/07 13:01:59;;;;;;;3.50;1.45;;;;;;;;;;5025562;28;20125;-49
2023/03/07 13:04:33;;;;;;;3.85;2.22;;;;;;;;;;5024673;28;20041;-50
2023/03/07 13:07:22;;;;;;;2.85;1.88;;;;;;;;;;5023828;28;20090;-49
2023/03/07 13:09:50;;;;;;;3.72;2.00;;;;;;;;;;5021540;28;20548;-47
2023/03/07 13:12:17;;;;;;;6.82;3.08;;;;;;;;;;5012062;28;20082;-49
2023/03/07 13:14:43;;;;;;;5.70;2.47;;;;;;;;;;5027461;28;20029;-47
2023/03/07 13:17:28;;;;;;;6.43;2.22;;;;;;;;;;5018975;28;20703;-50
2023/03/07 13:19:55;;;;;;;3.53;2.13;;;;;;;;;;5023231;28;20080;-49
2023/03/07 13:22:20;;;;;;;4.57;2.17;;;;;;;;;;5012235;28;20041;-47
2023/03/07 13:24:47;;;;;;;4.35;2.20;;;;;;;;;;5021378;28;20052;-46
2023/03/07 13:27:19;;;;;;;5.38;2.65;;;;;;;;;;5014723;28;20025;-47
2023/03/07 13:30:03;;;;;;;3.60;1.98;;;;;;;;;;5024373;28;20018;-48
2023/03/07 13:32:54;;;;;;;6.60;2.70;;;;;;;;;;5010372;28;20077;-50
2023/03/07 13:35:34;;;;;;;5.07;2.15;;;;;;;;;;5008195;28;20048;-50
2023/03/07 13:38:37;;;;;;;5.63;2.75;;;;;;;;;;5019831;28;20037;-49
2023/03/07 13:41:04;;;;;;;6.55;2.90;;;;;;;;;;5021420;28;20186;-49
2023/03/07 13:43:34;;;;;;;7.30;2.75;;;;;;;;;;5020181;28;20068;-50
2023/03/07 13:46:01;;;;;;;4.30;2.13;;;;;;;;;;5018214;28;20037;-50
2023/03/07 13:48:29;;;;;;;5.35;2.55;;;;;;;;;;5020181;28;20709;-50
2023/03/07 13:50:57;;;;;;;5.57;2.53;;;;;;;;;;5015247;28;20403;-50
2023/03/07 13:53:32;;;;;;;5.07;2.78;;;;;;;;;;5021847;28;20044;-50
2023/03/07 13:56:09;;;;;;;5.63;2.20;;;;;;;;;;5023812;28;20095;-47
2023/03/07 13:58:38;;;;;;;5.50;2.60;;;;;;;;;;5025148;28;20041;-50
2023/03/07 14:01:16;;;;;;;6.70;3.05;;;;;;;;;;5024138;28;20048;-49
2023/03/07 14:03:48;;;;;;;5.65;1.85;;;;;;;;;;5021101;28;20041;-47
2023/03/07 14:06:22;;;;;;;4.78;2.45;;;;;;;;;;5015179;28;20038;-48
2023/03/07 14:08:49;;;;;;;5.68;2.92;;;;;;;;;;5016749;28;20049;-51
2023/03/07 14:11:23;;;;;;;4.57;2.33;;;;;;;;;;5008579;28;20696;-50
2023/03/07 14:13:48;;;;;;;3.10;1.67;;;;;;;;;;5017276;28;20566;-49
2023/03/07 14:16:40;;;;;;;2.35;1.40;;;;;;;;;;5018440;28;21329;-48
2023/03/07 14:19:36;;;;;;;2.45;1.30;;;;;;;;;;5024394;28;20049;-48
2023/03/07 14:22:20;;;;;;;1.77;1.13;;;;;;;;;;5013019;28;20041;-50
2023/03/07 14:25:06;;;;;;;2.70;1.15;;;;;;;;;;5013430;28;20049;-50
2023/03/07 14:27:48;;;;;;;1.10;0.93;;;;;;;;;;5015442;28;20042;-49
2023/03/07 14:30:15;;;;;;;3.80;1.60;;;;;;;;;;5020545;28;20072;-47
2023/03/07 14:32:40;;;;;;;4.93;2.15;;;;;;;;;;5025973;28;20116;-47
2023/03/07 14:35:06;;;;;;;3.38;1.65;;;;;;;;;;5016950;28;20136;-48
2023/03/07 14:37:32;;;;;;;4.47;2.17;;;;;;;;;;5012039;28;20042;-48
2023/03/07 14:39:57;;;;;;;2.90;1.60;;;;;;;;;;5007293;28;20042;-51
2023/03/07 14:42:41;;;;;;;4.63;2.00;;;;;;;;;;5009934;28;20049;-50
2023/03/07 14:45:15;;;;;;;4.63;2.35;;;;;;;;;;5016716;28;20038;-48
2023/03/07 14:47:40;;;;;;;6.40;2.63;;;;;;;;;;5006866;28;20029;-45